Time;durP1;ratioP1;P1;durP2;ratioP2;P2;SDS_P1;SDS_P2;PMS_P1;PMS_P2;Temp;Humidity;BMP_temperature;BMP_pressure;BME280_temperature;BME280_humidity;BME280_pressure;Samples;Min_cycle;Max_cycle;Signal;HPM_P1;HPM_P2
2023/08/03 00:00:22;;;;;;;9.35;9.05;;;21.70;99.90;;;;;;5061083;28;20573;-63
2023/08/03 00:02:49;;;;;;;9.02;8.73;;;21.70;99.90;;;;;;5059957;28;20630;-64
2023/08/03 00:05:19;;;;;;;9.40;8.90;;;21.70;99.90;;;;;;5071408;28;20305;-64
2023/08/03 00:07:46;;;;;;;9.50;9.10;;;21.70;99.90;;;;;;5059786;28;20210;-64
2023/08/03 00:10:13;;;;;;;9.25;8.88;;;21.60;99.90;;;;;;5045092;28;20192;-64
2023/08/03 00:12:41;;;;;;;9.25;8.85;;;21.60;99.90;;;;;;5049572;28;20208;-65
2023/08/03 00:15:09;;;;;;;8.60;8.30;;;21.60;99.90;;;;;;5048888;28;20224;-65
2023/08/03 00:17:36;;;;;;;9.15;8.75;;;21.60;99.90;;;;;;5046979;28;20258;-65
2023/08/03 00:20:04;;;;;;;9.63;9.30;;;21.60;99.90;;;;;;5051368;28;20224;-65
2023/08/03 00:22:31;;;;;;;9.18;8.77;;;21.60;99.90;;;;;;5047807;28;20227;-64
2023/08/03 00:24:59;;;;;;;12.60;12.10;;;21.60;99.90;;;;;;5044975;28;20588;-64
2023/08/03 00:27:25;;;;;;;9.65;9.30;;;21.50;99.90;;;;;;5045879;28;20716;-64
2023/08/03 00:29:54;;;;;;;9.45;9.13;;;21.50;99.90;;;;;;5045050;28;20218;-64
2023/08/03 00:32:21;;;;;;;10.00;9.60;;;21.50;99.90;;;;;;5046173;28;20204;-64
2023/08/03 00:34:48;;;;;;;9.85;9.45;;;21.50;99.90;;;;;;5042106;28;20283;-64
2023/08/03 00:37:15;;;;;;;9.88;9.48;;;21.50;99.90;;;;;;5040730;28;20207;-64
2023/08/03 00:39:42;;;;;;;9.07;8.77;;;21.40;99.90;;;;;;5041574;28;20220;-64
2023/08/03 00:42:10;;;;;;;159.80;149.13;;;21.40;99.90;;;;;;5045038;28;20204;-65
2023/08/03 00:44:37;;;;;;;9.93;9.52;;;21.60;99.90;;;;;;5042110;28;20207;-64
2023/08/03 00:47:06;;;;;;;11.80;11.30;;;21.40;99.90;;;;;;5042805;28;20301;-65
2023/08/03 00:49:33;;;;;;;9.45;9.05;;;21.40;99.90;;;;;;5040980;28;20210;-64
2023/08/03 00:52:00;;;;;;;9.32;9.00;;;21.40;99.90;;;;;;5036192;28;20201;-65
2023/08/03 00:54:27;;;;;;;16.23;15.52;;;21.40;99.90;;;;;;5031527;28;20655;-65
2023/08/03 00:56:54;;;;;;;8.77;8.48;;;21.30;99.90;;;;;;5057686;28;20333;-66
2023/08/03 00:59:21;;;;;;;8.77;8.38;;;21.30;99.90;;;;;;5043684;28;20586;-63
2023/08/03 01:01:48;;;;;;;8.80;8.40;;;21.30;99.90;;;;;;5047063;28;20576;-64
2023/08/03 01:04:16;;;;;;;8.45;8.15;;;21.30;99.90;;;;;;5041793;28;20201;-65
2023/08/03 01:06:43;;;;;;;8.32;8.02;;;21.30;99.90;;;;;;5053157;28;20219;-63
2023/08/03 01:09:09;;;;;;;8.63;8.32;;;21.30;99.90;;;;;;5052856;28;20202;-64
2023/08/03 01:11:36;;;;;;;12.65;12.18;;;21.30;99.90;;;;;;5047263;28;20204;-64
2023/08/03 01:14:03;;;;;;;8.52;8.23;;;21.30;99.90;;;;;;5043487;28;20284;-64
2023/08/03 01:16:30;;;;;;;8.45;8.13;;;21.30;99.90;;;;;;5043758;28;20223;-65
2023/08/03 01:18:57;;;;;;;8.35;8.05;;;21.30;99.90;;;;;;5044808;28;20220;-65
2023/08/03 01:21:27;;;;;;;7.95;7.65;;;21.30;99.90;;;;;;5042219;28;20197;-64
2023/08/03 01:23:56;;;;;;;8.60;8.27;;;21.20;99.90;;;;;;5042746;28;20236;-65
2023/08/03 01:26:23;;;;;;;8.60;8.30;;;21.30;99.90;;;;;;5043699;28;20228;-65
2023/08/03 01:28:50;;;;;;;8.25;7.95;;;21.20;99.90;;;;;;5044215;28;20279;-64
2023/08/03 01:31:20;;;;;;;8.50;8.10;;;21.20;99.90;;;;;;5044188;28;20727;-64
2023/08/03 01:33:48;;;;;;;8.55;8.25;;;21.20;99.90;;;;;;5043458;28;20204;-65
2023/08/03 01:36:14;;;;;;;8.30;8.00;;;21.20;99.90;;;;;;5046732;28;20220;-65
2023/08/03 01:38:41;;;;;;;9.53;9.20;;;21.20;99.90;;;;;;5061352;28;20696;-64
2023/08/03 01:41:10;;;;;;;8.52;8.23;;;21.20;99.90;;;;;;5055156;28;20203;-65
2023/08/03 01:43:36;;;;;;;8.25;7.95;;;21.10;99.90;;;;;;5050558;28;20212;-65
2023/08/03 01:46:05;;;;;;;8.57;8.27;;;21.10;99.90;;;;;;5050454;28;20226;-65
2023/08/03 01:48:31;;;;;;;8.77;8.48;;;21.10;99.90;;;;;;5044095;28;20281;-65
2023/08/03 01:50:58;;;;;;;32.13;30.80;;;21.10;99.90;;;;;;5045619;28;20204;-65
2023/08/03 01:53:25;;;;;;;14.27;13.77;;;20.90;99.90;;;;;;5049678;28;20711;-65
2023/08/03 01:55:52;;;;;;;17.47;16.77;;;20.70;99.90;;;;;;5046171;28;20293;-64
2023/08/03 01:58:20;;;;;;;21.63;20.83;;;20.50;99.90;;;;;;5044223;28;20200;-64
2023/08/03 02:00:47;;;;;;;16.15;15.55;;;20.40;99.90;;;;;;5043257;28;20212;-65
2023/08/03 02:03:14;;;;;;;16.67;16.08;;;20.30;99.90;;;;;;5043388;28;20192;-64
2023/08/03 02:05:41;;;;;;;16.40;15.80;;;20.30;99.90;;;;;;5042474;28;20226;-65
2023/08/03 02:08:08;;;;;;;14.33;13.83;;;20.20;99.90;;;;;;5042502;28;20292;-64
2023/08/03 02:10:34;;;;;;;16.20;15.50;;;20.20;99.90;;;;;;5042772;28;20619;-65
2023/08/03 02:13:01;;;;;;;15.13;14.52;;;20.20;99.90;;;;;;5042634;28;20558;-65
2023/08/03 02:15:29;;;;;;;15.13;14.57;;;20.20;99.90;;;;;;5048253;28;20247;-65
2023/08/03 02:17:56;;;;;;;15.97;15.37;;;20.20;99.90;;;;;;5041745;28;20528;-65
2023/08/03 02:20:23;;;;;;;14.77;14.25;;;20.30;99.90;;;;;;5050063;28;20224;-65
2023/08/03 02:22:50;;;;;;;16.58;16.02;;;20.20;99.90;;;;;;5052355;28;20199;-65
2023/08/03 02:25:17;;;;;;;15.73;15.13;;;20.30;99.90;;;;;;5051834;28;20232;-65
2023/08/03 02:27:43;;;;;;;15.20;14.65;;;20.30;99.90;;;;;;5065656;22;20229;-66
2023/08/03 02:30:11;;;;;;;15.25;14.65;;;20.30;99.90;;;;;;5046592;28;20196;-65
2023/08/03 02:32:40;;;;;;;16.02;15.48;;;20.20;99.90;;;;;;5043166;28;20212;-66
2023/08/03 02:35:07;;;;;;;15.75;15.20;;;20.20;99.90;;;;;;5042657;28;20203;-66
2023/08/03 02:37:34;;;;;;;14.25;13.75;;;20.20;99.90;;;;;;5041079;28;20220;-64
2023/08/03 02:40:01;;;;;;;12.93;12.43;;;20.20;99.90;;;;;;5050859;28;20220;-66
2023/08/03 02:42:28;;;;;;;15.23;14.63;;;20.30;99.90;;;;;;5051493;28;20284;-66
2023/08/03 02:44:55;;;;;;;14.03;13.53;;;20.30;99.90;;;;;;5040351;28;20303;-66
2023/08/03 02:47:21;;;;;;;17.97;17.27;;;20.30;99.90;;;;;;5051120;28;20222;-66
2023/08/03 02:49:50;;;;;;;13.70;13.20;;;20.20;99.90;;;;;;5039464;28;20192;-66
2023/08/03 02:52:17;;;;;;;13.60;13.10;;;20.20;99.90;;;;;;5042728;28;20207;-65
2023/08/03 02:54:43;;;;;;;14.10;13.60;;;20.20;99.90;;;;;;5031375;28;20663;-66
2023/08/03 02:57:10;;;;;;;13.37;12.87;;;20.20;99.90;;;;;;5032479;28;20255;-66
2023/08/03 02:59:37;;;;;;;12.60;12.10;;;20.20;99.90;;;;;;5031978;28;20221;-66
2023/08/03 03:02:04;;;;;;;12.87;12.37;;;20.20;99.90;;;;;;5032202;28;20294;-66
2023/08/03 03:04:31;;;;;;;13.13;12.67;;;20.20;99.90;;;;;;5031593;28;20205;-65
2023/08/03 03:06:59;;;;;;;14.53;14.03;;;20.20;99.90;;;;;;5031078;28;20231;-65
2023/08/03 03:09:26;;;;;;;20.50;19.75;;;20.20;99.90;;;;;;5030559;28;20223;-67
2023/08/03 03:11:55;;;;;;;12.20;11.80;;;20.20;99.90;;;;;;5031181;28;20299;-66
2023/08/03 03:14:22;;;;;;;14.85;14.35;;;20.20;99.90;;;;;;5031387;28;20296;-66
2023/08/03 03:16:49;;;;;;;13.15;12.65;;;20.20;99.90;;;;;;5031330;28;20220;-66
2023/08/03 03:19:16;;;;;;;13.93;13.43;;;20.10;99.90;;;;;;5029771;28;20698;-65
2023/08/03 03:21:42;;;;;;;13.83;13.33;;;20.10;99.90;;;;;;5031588;28;20207;-66
2023/08/03 03:24:11;;;;;;;15.73;15.00;;;20.10;99.90;;;;;;5031605;28;20230;-66
2023/08/03 03:26:38;;;;;;;17.52;16.83;;;20.10;99.90;;;;;;5031171;28;20243;-65
2023/08/03 03:29:04;;;;;;;13.37;12.87;;;20.00;99.90;;;;;;5030276;28;20212;-66
2023/08/03 03:31:31;;;;;;;22.98;22.05;;;20.00;99.90;;;;;;5030283;28;20208;-67
2023/08/03 03:33:58;;;;;;;13.95;13.48;;;20.00;99.90;;;;;;5031955;28;20215;-66
2023/08/03 03:36:25;;;;;;;20.97;20.17;;;19.90;99.90;;;;;;5032244;28;20231;-66
2023/08/03 03:38:52;;;;;;;13.90;13.40;;;20.00;99.90;;;;;;5031964;28;20292;-66
2023/08/03 03:41:20;;;;;;;15.20;14.70;;;19.90;99.90;;;;;;5031464;28;20239;-66
2023/08/03 03:43:47;;;;;;;15.23;14.63;;;19.90;99.90;;;;;;5032051;28;20304;-65
2023/08/03 03:46:13;;;;;;;14.00;13.50;;;19.80;99.90;;;;;;5032005;28;20227;-66
2023/08/03 03:48:40;;;;;;;14.93;14.43;;;19.80;99.90;;;;;;5034085;28;20219;-65
2023/08/03 03:51:07;;;;;;;15.07;14.57;;;19.80;99.90;;;;;;5038244;28;20197;-66
2023/08/03 03:53:34;;;;;;;14.07;13.57;;;19.70;99.90;;;;;;5040936;28;20203;-66
2023/08/03 03:56:01;;;;;;;14.40;13.90;;;19.80;99.90;;;;;;5043225;28;20215;-66
2023/08/03 03:58:30;;;;;;;14.57;14.05;;;19.80;99.90;;;;;;5050401;28;20258;-66
2023/08/03 04:00:56;;;;;;;17.10;16.50;;;19.70;99.90;;;;;;5049811;28;20228;-65
2023/08/03 04:03:26;;;;;;;14.80;14.20;;;19.70;99.90;;;;;;5051153;28;20208;-65
2023/08/03 04:05:53;;;;;;;21.13;20.37;;;19.70;99.90;;;;;;5050489;28;20699;-65
2023/08/03 04:08:20;;;;;;;14.43;13.93;;;19.60;99.90;;;;;;5052700;28;20235;-66
2023/08/03 04:10:47;;;;;;;16.00;15.40;;;19.60;99.90;;;;;;5052255;28;20836;-65
2023/08/03 04:13:14;;;;;;;17.23;16.63;;;19.60;99.90;;;;;;5052749;28;20262;-66
2023/08/03 04:15:42;;;;;;;15.63;15.05;;;19.60;99.90;;;;;;5053872;28;20764;-66
2023/08/03 04:18:08;;;;;;;15.67;15.10;;;19.60;99.90;;;;;;5065296;28;20251;-66
2023/08/03 04:20:35;;;;;;;20.23;19.40;;;19.60;99.90;;;;;;5055199;28;20222;-66
2023/08/03 04:23:02;;;;;;;12.20;11.75;;;19.60;99.90;;;;;;5051350;28;20208;-66
2023/08/03 04:25:29;;;;;;;18.65;17.98;;;19.60;99.90;;;;;;5050322;28;20576;-66
2023/08/03 04:27:55;;;;;;;14.25;13.75;;;19.60;99.90;;;;;;5056063;28;20295;-66
2023/08/03 04:30:22;;;;;;;14.73;14.23;;;19.60;99.90;;;;;;5049235;28;20290;-66
2023/08/03 04:32:51;;;;;;;15.60;15.05;;;19.70;99.90;;;;;;5050164;28;20207;-66
2023/08/03 04:35:18;;;;;;;16.65;16.08;;;19.60;99.90;;;;;;5050373;28;20239;-66
2023/08/03 04:37:45;;;;;;;16.50;15.93;;;19.60;99.90;;;;;;5049274;28;20223;-66
2023/08/03 04:40:12;;;;;;;17.90;17.30;;;19.60;99.90;;;;;;5046074;28;20748;-66
2023/08/03 04:42:39;;;;;;;23.63;22.83;;;19.60;99.90;;;;;;5049153;28;20295;-65
2023/08/03 04:45:06;;;;;;;21.20;20.48;;;19.50;99.90;;;;;;5049780;28;20211;-66
2023/08/03 04:47:33;;;;;;;20.45;19.75;;;19.50;99.90;;;;;;5049570;28;20668;-65
2023/08/03 04:50:01;;;;;;;21.05;20.30;;;19.40;99.90;;;;;;5048848;28;20199;-65
2023/08/03 04:52:28;;;;;;;21.13;20.38;;;19.40;99.90;;;;;;5046373;28;20702;-66
2023/08/03 04:54:55;;;;;;;19.98;19.27;;;19.40;99.90;;;;;;5050230;28;20206;-66
2023/08/03 04:57:22;;;;;;;20.85;20.13;;;19.40;99.90;;;;;;5058373;28;20265;-66
2023/08/03 04:59:49;;;;;;;24.77;23.88;;;19.50;99.90;;;;;;5048411;28;20230;-65
2023/08/03 05:02:15;;;;;;;25.57;24.67;;;19.40;99.90;;;;;;5049142;28;20208;-66
2023/08/03 05:04:42;;;;;;;22.70;21.90;;;19.40;99.90;;;;;;5049438;28;20311;-64
2023/08/03 05:07:10;;;;;;;23.67;22.88;;;19.30;99.90;;;;;;5049189;28;20263;-66
2023/08/03 05:09:37;;;;;;;23.48;22.65;;;19.30;99.90;;;;;;5050734;28;20582;-65
2023/08/03 05:12:04;;;;;;;22.63;21.83;;;19.20;99.90;;;;;;5069384;28;20207;-66
2023/08/03 05:14:31;;;;;;;19.42;18.73;;;19.20;99.90;;;;;;5060798;28;20206;-66
2023/08/03 05:16:58;;;;;;;21.25;20.48;;;19.10;99.90;;;;;;5049882;28;20228;-66
2023/08/03 05:19:25;;;;;;;20.50;19.80;;;19.00;99.90;;;;;;5048753;28;20258;-66
2023/08/03 05:21:52;;;;;;;21.10;20.35;;;18.90;99.90;;;;;;5049123;28;20991;-66
2023/08/03 05:24:20;;;;;;;20.10;19.40;;;18.80;99.90;;;;;;5056358;28;20226;-66
2023/08/03 05:26:47;;;;;;;18.17;17.47;;;18.80;99.90;;;;;;5057512;28;20230;-66
2023/08/03 05:29:13;;;;;;;24.75;23.85;;;18.80;99.90;;;;;;5049317;28;20298;-66
2023/08/03 05:31:40;;;;;;;18.23;17.60;;;18.80;99.90;;;;;;5049807;28;20199;-66
2023/08/03 05:34:07;;;;;;;15.93;15.23;;;18.90;99.90;;;;;;5048238;28;20690;-65
2023/08/03 05:36:34;;;;;;;17.98;17.38;;;18.80;99.90;;;;;;5048973;28;20230;-66
2023/08/03 05:39:01;;;;;;;18.70;18.00;;;18.80;99.90;;;;;;5049179;28;20210;-66
2023/08/03 05:41:30;;;;;;;24.05;23.17;;;18.80;99.90;;;;;;5048265;28;20917;-66
2023/08/03 05:43:56;;;;;;;23.58;22.75;;;18.70;99.90;;;;;;5052085;28;20202;-66
2023/08/03 05:46:23;;;;;;;23.23;22.43;;;18.70;99.90;;;;;;5052611;28;20703;-65
2023/08/03 05:48:52;;;;;;;23.13;22.33;;;18.80;99.90;;;;;;5052616;28;20262;-65
2023/08/03 05:51:25;;;;;;;26.73;25.67;;;18.80;99.90;;;;;;5051000;28;20202;-66
2023/08/03 05:53:52;;;;;;;26.30;25.40;;;18.80;99.90;;;;;;5046914;28;20212;-65
2023/08/03 05:56:20;;;;;;;26.37;25.43;;;18.80;99.90;;;;;;5048987;28;20224;-66
2023/08/03 05:58:49;;;;;;;32.28;31.05;;;18.90;99.90;;;;;;5052555;28;20207;-66
2023/08/03 06:01:19;;;;;;;24.08;23.23;;;18.90;99.90;;;;;;5048349;28;20208;-64
2023/08/03 06:03:47;;;;;;;25.13;24.25;;;19.00;99.90;;;;;;5049902;28;20230;-65
2023/08/03 06:06:18;;;;;;;96.32;91.30;;;18.90;99.90;;;;;;5051460;28;20323;-65
2023/08/03 06:08:47;;;;;;;19.67;19.00;;;19.00;99.90;;;;;;5051151;28;20200;-63
2023/08/03 06:11:16;;;;;;;21.52;20.75;;;19.00;99.90;;;;;;5047354;28;20196;-64
2023/08/03 06:13:43;;;;;;;21.53;20.77;;;19.00;99.90;;;;;;5051047;28;20231;-64
2023/08/03 06:16:12;;;;;;;53.85;51.40;;;19.10;99.90;;;;;;5051018;28;20246;-63
2023/08/03 06:18:47;;;;;;;19.17;18.50;;;19.10;99.90;;;;;;5052431;28;20211;-64
2023/08/03 06:21:15;;;;;;;23.90;23.05;;;19.10;99.90;;;;;;5052159;28;20218;-64
2023/08/03 06:23:45;;;;;;;19.17;18.47;;;19.20;99.90;;;;;;5052765;28;20681;-64
2023/08/03 06:26:13;;;;;;;16.75;16.17;;;19.20;99.90;;;;;;5052569;28;20239;-65
2023/08/03 06:28:40;;;;;;;17.50;16.80;;;19.20;99.90;;;;;;5052716;28;20289;-63
2023/08/03 06:31:13;;;;;;;15.83;15.30;;;19.20;99.90;;;;;;5051746;28;20830;-63
2023/08/03 06:33:41;;;;;;;17.83;17.23;;;19.20;99.90;;;;;;5051045;28;20210;-63
2023/08/03 06:36:11;;;;;;;22.40;21.60;;;19.20;99.90;;;;;;5052906;28;20285;-63
2023/08/03 06:38:38;;;;;;;16.75;16.17;;;19.20;99.90;;;;;;5052465;28;20202;-65
2023/08/03 06:41:05;;;;;;;18.30;17.63;;;19.20;99.90;;;;;;5051205;28;20228;-65
2023/08/03 06:43:32;;;;;;;13.52;13.02;;;19.30;99.90;;;;;;5051637;28;20215;-65
2023/08/03 06:45:59;;;;;;;14.13;13.63;;;19.30;99.90;;;;;;5052140;28;20227;-66
2023/08/03 06:48:28;;;;;;;12.57;12.17;;;19.30;99.90;;;;;;5051711;28;20573;-68
2023/08/03 06:50:55;;;;;;;17.83;17.23;;;19.30;99.90;;;;;;5051008;28;20199;-65
2023/08/03 06:53:23;;;;;;;15.53;15.00;;;19.30;99.90;;;;;;5050767;28;20871;-64
2023/08/03 06:55:49;;;;;;;26.17;25.17;;;19.30;99.90;;;;;;5052432;28;20204;-64
2023/08/03 06:58:17;;;;;;;17.98;17.33;;;19.20;99.90;;;;;;5052328;28;20214;-65
2023/08/03 07:00:44;;;;;;;17.45;16.83;;;19.20;99.90;;;;;;5050998;28;20777;-64
2023/08/03 07:03:11;;;;;;;16.08;15.52;;;19.20;99.90;;;;;;5051889;28;20208;-65
2023/08/03 07:05:40;;;;;;;19.10;18.40;;;19.20;99.90;;;;;;5052892;28;20303;-64
2023/08/03 07:08:07;;;;;;;19.98;19.27;;;19.30;99.90;;;;;;5052468;28;20204;-64
2023/08/03 07:10:35;;;;;;;17.52;16.90;;;19.30;99.90;;;;;;5051189;28;20207;-64
2023/08/03 07:13:01;;;;;;;17.63;17.03;;;19.30;99.90;;;;;;5050795;28;20926;-63
2023/08/03 07:15:33;;;;;;;24.67;23.77;;;19.40;99.90;;;;;;5050892;28;20653;-64
2023/08/03 07:18:00;;;;;;;17.00;16.40;;;19.40;99.90;;;;;;5050869;28;20216;-63
2023/08/03 07:20:27;;;;;;;17.63;17.03;;;19.40;99.90;;;;;;5049686;28;20583;-63
2023/08/03 07:22:55;;;;;;;14.73;14.23;;;19.40;99.90;;;;;;5050942;28;20211;-63
2023/08/03 07:25:22;;;;;;;13.90;13.40;;;19.40;99.90;;;;;;5050839;28;20698;-63
2023/08/03 07:27:49;;;;;;;13.93;13.43;;;19.50;99.90;;;;;;5050423;28;20322;-63
2023/08/03 07:30:15;;;;;;;17.50;16.90;;;19.40;99.90;;;;;;5049731;28;20596;-63
2023/08/03 07:32:42;;;;;;;14.05;13.55;;;19.40;99.90;;;;;;5050740;28;20210;-65
2023/08/03 07:35:09;;;;;;;16.40;15.80;;;19.40;99.90;;;;;;5050438;28;20208;-64
2023/08/03 07:37:36;;;;;;;16.25;15.70;;;19.40;99.90;;;;;;5050192;28;20262;-65
2023/08/03 07:40:05;;;;;;;14.03;13.53;;;19.40;99.90;;;;;;5050088;28;20297;-64
2023/08/03 07:42:32;;;;;;;13.40;12.90;;;19.40;99.90;;;;;;5051367;28;20219;-64
2023/08/03 07:45:00;;;;;;;14.88;14.38;;;19.40;99.90;;;;;;5051381;28;20775;-64
2023/08/03 07:47:27;;;;;;;13.13;12.65;;;19.40;99.90;;;;;;5051366;28;20251;-65
2023/08/03 07:49:55;;;;;;;14.48;13.98;;;19.40;99.90;;;;;;5050675;28;20576;-64
2023/08/03 07:52:22;;;;;;;12.45;12.05;;;19.40;99.90;;;;;;5051624;28;20659;-64
2023/08/03 07:54:49;;;;;;;16.93;16.33;;;19.40;99.90;;;;;;5051613;28;20573;-63
2023/08/03 07:57:17;;;;;;;12.27;11.75;;;19.40;99.90;;;;;;5051074;28;20230;-64
2023/08/03 07:59:48;;;;;;;12.53;12.13;;;19.40;99.90;;;;;;5050604;28;20666;-64
2023/08/03 08:02:14;;;;;;;12.88;12.40;;;19.40;99.90;;;;;;5051244;28;20266;-64
2023/08/03 08:04:41;;;;;;;16.13;15.52;;;19.40;99.90;;;;;;5050268;28;20204;-64
2023/08/03 08:07:08;;;;;;;12.70;12.27;;;19.40;99.90;;;;;;5051309;28;20223;-65
2023/08/03 08:09:35;;;;;;;15.45;14.95;;;19.40;99.90;;;;;;5050370;28;20200;-65
2023/08/03 08:12:02;;;;;;;15.07;14.52;;;19.40;99.90;;;;;;5051060;28;20207;-65
2023/08/03 08:14:30;;;;;;;15.05;14.55;;;19.50;99.90;;;;;;5050855;28;20554;-65
2023/08/03 08:16:56;;;;;;;16.30;15.77;;;19.50;99.90;;;;;;5050861;28;20297;-65
2023/08/03 08:19:23;;;;;;;22.87;21.97;;;19.50;99.90;;;;;;5048778;28;20224;-65
2023/08/03 08:21:50;;;;;;;17.23;16.63;;;19.50;99.90;;;;;;5050035;28;20241;-63
2023/08/03 08:24:17;;;;;;;14.50;14.00;;;19.50;99.90;;;;;;5050062;28;20206;-65
2023/08/03 08:26:45;;;;;;;16.75;16.17;;;19.50;99.90;;;;;;5049903;28;20232;-66
2023/08/03 08:29:12;;;;;;;26.40;25.27;;;19.60;99.90;;;;;;5063684;22;20251;-64
2023/08/03 08:31:40;;;;;;;17.30;16.70;;;19.60;99.90;;;;;;5066310;28;20209;-65
2023/08/03 08:34:07;;;;;;;16.73;16.13;;;19.60;99.90;;;;;;5069180;28;20679;-66
2023/08/03 08:36:34;;;;;;;17.80;17.20;;;19.60;99.90;;;;;;5070128;28;20242;-67
2023/08/03 08:39:00;;;;;;;16.83;16.23;;;19.60;99.90;;;;;;5068994;28;20207;-66
2023/08/03 08:41:27;;;;;;;19.47;18.77;;;19.60;99.90;;;;;;5051565;28;20235;-66
2023/08/03 08:43:54;;;;;;;19.07;18.37;;;19.70;99.90;;;;;;5053863;28;20207;-65
2023/08/03 08:46:21;;;;;;;18.20;17.57;;;19.70;99.90;;;;;;5052993;28;20233;-65
2023/08/03 08:48:49;;;;;;;16.73;16.13;;;19.80;99.90;;;;;;5051655;28;20203;-66
2023/08/03 08:51:18;;;;;;;18.27;17.63;;;19.80;99.90;;;;;;5050002;28;20204;-65
2023/08/03 08:53:45;;;;;;;21.13;20.33;;;19.80;99.90;;;;;;5051369;28;20261;-66
2023/08/03 08:56:14;;;;;;;23.70;22.80;;;19.90;99.90;;;;;;5052816;28;20211;-66
2023/08/03 08:58:40;;;;;;;16.73;16.13;;;19.90;99.90;;;;;;5050784;28;20238;-66
2023/08/03 09:01:07;;;;;;;20.65;19.90;;;19.90;99.90;;;;;;5049599;28;20902;-67
2023/08/03 09:03:56;;;;;;;17.70;17.10;;;19.90;99.90;;;;;;5052039;28;20367;-67
2023/08/03 09:06:23;;;;;;;19.13;18.42;;;20.00;99.90;;;;;;5049835;28;20204;-66
2023/08/03 09:08:52;;;;;;;22.60;21.80;;;20.00;99.90;;;;;;5049296;28;20581;-67
2023/08/03 09:11:18;;;;;;;15.53;14.97;;;20.00;99.90;;;;;;5048499;28;20203;-67
2023/08/03 09:13:48;;;;;;;13.83;13.33;;;20.00;99.90;;;;;;5050111;28;20700;-68
2023/08/03 09:16:26;;;;;;;13.65;13.20;;;20.10;99.90;;;;;;5049642;28;20208;-66
2023/08/03 09:18:54;;;;;;;19.08;18.17;;;20.30;99.90;;;;;;5054350;28;20282;-67
2023/08/03 09:21:22;;;;;;;19.37;18.70;;;20.60;99.90;;;;;;5046090;28;20583;-67
2023/08/03 09:23:49;;;;;;;18.02;17.40;;;20.90;99.90;;;;;;5045813;28;20193;-68
2023/08/03 09:26:22;;;;;;;19.38;18.67;;;21.10;99.90;;;;;;5046248;28;20222;-66
2023/08/03 09:28:49;;;;;;;19.53;18.87;;;21.20;99.90;;;;;;5045521;28;20195;-67
2023/08/03 09:31:23;;;;;;;18.80;18.10;;;21.30;99.90;;;;;;5037674;28;20671;-67
2023/08/03 09:33:57;;;;;;;13.20;12.75;;;21.20;99.90;;;;;;5034377;28;20204;-67
2023/08/03 09:36:24;;;;;;;15.27;14.75;;;21.20;99.90;;;;;;5033590;28;20209;-67
2023/08/03 09:38:51;;;;;;;14.98;14.48;;;21.20;99.90;;;;;;5033851;28;20296;-67
2023/08/03 09:41:34;;;;;;;18.05;17.45;;;21.20;99.90;;;;;;5032481;28;20330;-66
2023/08/03 09:44:02;;;;;;;13.10;12.68;;;21.30;99.90;;;;;;5032792;28;20204;-68
2023/08/03 09:46:30;;;;;;;13.73;13.23;;;21.50;99.90;;;;;;5032875;28;20262;-66
2023/08/03 09:48:58;;;;;;;15.33;14.83;;;21.60;99.90;;;;;;5032845;28;20212;-67
2023/08/03 09:51:29;;;;;;;17.13;16.52;;;21.60;99.90;;;;;;5032817;28;20294;-66
2023/08/03 09:54:00;;;;;;;15.80;15.20;;;21.50;99.90;;;;;;5039849;28;20316;-65
2023/08/03 09:56:33;;;;;;;14.70;14.20;;;21.60;99.90;;;;;;5033419;28;20215;-64
2023/08/03 09:59:04;;;;;;;15.02;14.52;;;21.70;99.90;;;;;;5033116;28;20189;-67
2023/08/03 10:01:34;;;;;;;16.35;15.75;;;21.80;99.90;;;;;;5036922;28;20213;-67
2023/08/03 10:04:05;;;;;;;19.40;18.70;;;21.90;99.90;;;;;;5033043;28;20197;-65
2023/08/03 10:06:35;;;;;;;14.77;14.27;;;22.00;99.90;;;;;;5032817;28;20204;-67
2023/08/03 10:09:05;;;;;;;18.40;17.70;;;22.30;99.90;;;;;;5035444;28;20683;-67
2023/08/03 10:11:36;;;;;;;14.48;13.98;;;22.50;99.90;;;;;;5033295;28;20864;-67
2023/08/03 10:14:05;;;;;;;16.73;16.13;;;22.40;99.90;;;;;;5036306;28;20208;-68
2023/08/03 10:16:34;;;;;;;12.63;12.23;;;22.50;99.90;;;;;;5035120;28;20215;-67
2023/08/03 10:19:03;;;;;;;13.13;12.73;;;22.50;99.90;;;;;;5033300;28;20211;-66
2023/08/03 10:21:30;;;;;;;21.30;20.48;;;22.60;99.90;;;;;;5033567;28;20316;-66
2023/08/03 10:24:09;;;;;;;12.07;11.68;;;22.70;99.90;;;;;;5033347;28;20673;-66
2023/08/03 10:26:36;;;;;;;12.05;11.65;;;22.80;99.90;;;;;;5032147;28;20211;-67
2023/08/03 10:29:03;;;;;;;10.52;10.13;;;22.90;99.90;;;;;;5031600;28;20435;-67
2023/08/03 10:31:30;;;;;;;11.37;10.97;;;23.00;99.90;;;;;;5032587;28;20621;-67
2023/08/03 10:34:07;;;;;;;11.63;11.23;;;23.30;99.90;;;;;;5032572;28;20631;-67
2023/08/03 10:36:46;;;;;;;12.43;12.03;;;23.50;99.90;;;;;;5033011;28;20212;-68
2023/08/03 10:39:16;;;;;;;11.18;10.77;;;23.60;99.90;;;;;;5033177;28;20228;-67
2023/08/03 10:41:45;;;;;;;12.88;12.38;;;23.70;99.90;;;;;;5035068;28;20240;-68
2023/08/03 10:44:28;;;;;;;10.35;10.02;;;23.70;99.90;;;;;;5039893;28;20196;-66
2023/08/03 10:46:57;;;;;;;73.57;69.43;;;23.70;99.90;;;;;;5047633;28;20291;-67
2023/08/03 10:49:55;;;;;;;10.80;10.40;;;23.60;99.90;;;;;;5042277;28;20221;-66
2023/08/03 10:52:30;;;;;;;9.55;9.25;;;24.00;99.90;;;;;;5042640;28;20566;-65
2023/08/03 10:54:58;;;;;;;9.40;9.10;;;24.20;99.90;;;;;;5042228;28;20212;-67
2023/08/03 10:57:28;;;;;;;9.32;9.02;;;24.20;99.90;;;;;;5043291;28;20254;-65
2023/08/03 10:59:56;;;;;;;9.15;8.85;;;24.20;99.90;;;;;;5043132;28;20275;-66
2023/08/03 11:02:28;;;;;;;11.00;10.60;;;24.00;99.90;;;;;;5037578;28;20223;-67
2023/08/03 11:04:57;;;;;;;9.15;8.85;;;23.80;99.90;;;;;;5036447;28;20204;-65
2023/08/03 11:07:27;;;;;;;9.60;9.30;;;23.80;99.90;;;;;;5032688;28;20302;-66
2023/08/03 11:09:54;;;;;;;9.75;9.45;;;23.80;99.90;;;;;;5039135;28;20246;-67
2023/08/03 11:12:23;;;;;;;10.15;9.80;;;23.90;99.90;;;;;;5043127;28;20779;-67
2023/08/03 11:14:52;;;;;;;9.13;8.82;;;24.10;99.90;;;;;;5039868;28;20197;-68
2023/08/03 11:17:22;;;;;;;11.75;11.32;;;24.20;99.90;;;;;;5044582;28;20196;-65
2023/08/03 11:19:49;;;;;;;8.63;8.32;;;24.30;99.90;;;;;;5041299;28;20212;-67
2023/08/03 11:22:17;;;;;;;10.77;10.38;;;24.60;99.90;;;;;;5048828;28;20220;-67
2023/08/03 11:24:45;;;;;;;10.27;9.88;;;24.80;99.90;;;;;;5036038;28;20243;-64
2023/08/03 11:27:13;;;;;;;8.68;8.38;;;24.70;99.90;;;;;;5037757;28;20200;-64
2023/08/03 11:29:40;;;;;;;9.25;8.95;;;24.80;99.90;;;;;;5048902;28;20263;-65
2023/08/03 11:32:11;;;;;;;9.25;8.88;;;25.00;99.90;;;;;;5031811;28;20693;-67
2023/08/03 11:34:38;;;;;;;8.90;8.60;;;25.30;99.90;;;;;;5044209;28;20263;-65
2023/08/03 11:37:05;;;;;;;9.10;8.80;;;25.40;99.90;;;;;;5042143;28;20204;-66
2023/08/03 11:39:34;;;;;;;8.98;8.68;;;25.60;99.90;;;;;;5042347;28;21176;-64
2023/08/03 11:42:03;;;;;;;12.40;11.98;;;25.90;99.90;;;;;;5039544;28;20311;-67
2023/08/03 11:44:29;;;;;;;9.07;8.77;;;26.00;99.90;;;;;;5042382;28;20287;-65
2023/08/03 11:47:04;;;;;;;9.48;9.18;;;26.00;99.90;;;;;;5041568;28;20208;-64
2023/08/03 11:49:31;;;;;;;10.18;9.77;;;25.90;99.90;;;;;;5045459;28;20938;-65
2023/08/03 11:52:00;;;;;;;9.50;9.20;;;26.00;99.90;;;;;;5041271;28;20655;-66
2023/08/03 11:54:30;;;;;;;9.80;9.50;;;26.00;99.90;;;;;;5040036;28;20199;-64
2023/08/03 11:58:07;;;;;;;9.77;9.48;;;26.00;99.90;;;;;;5039633;28;20671;-66
2023/08/03 11:59:48;;;;;;;12.52;12.05;;;26.00;99.90;;;;;;5041229;28;20213;-64
2023/08/03 12:02:16;;;;;;;9.55;9.25;;;25.90;99.90;;;;;;5039961;28;20689;-64
2023/08/03 12:04:43;;;;;;;12.60;12.15;;;25.70;99.90;;;;;;5042444;28;20219;-65
2023/08/03 12:07:10;;;;;;;9.40;9.10;;;25.60;99.90;;;;;;5043623;28;20230;-68
2023/08/03 12:09:39;;;;;;;9.00;8.70;;;25.40;99.90;;;;;;5041155;28;20251;-64
2023/08/03 12:12:10;;;;;;;9.13;8.82;;;25.70;99.90;;;;;;5041386;28;20805;-65
2023/08/03 12:14:37;;;;;;;9.25;8.95;;;25.90;99.90;;;;;;5050651;28;20207;-66
2023/08/03 12:17:10;;;;;;;9.30;9.00;;;26.20;99.90;;;;;;5047700;28;20200;-67
2023/08/03 12:19:37;;;;;;;9.10;8.80;;;26.20;99.90;;;;;;5053819;28;20663;-66
2023/08/03 12:22:05;;;;;;;9.32;9.02;;;26.20;99.90;;;;;;5058029;28;20269;-67
2023/08/03 12:24:32;;;;;;;8.90;8.60;;;26.00;99.90;;;;;;5054459;28;20253;-66
2023/08/03 12:26:59;;;;;;;10.35;10.02;;;25.90;99.90;;;;;;5054313;28;20725;-67
2023/08/03 12:29:27;;;;;;;9.18;8.88;;;26.00;99.90;;;;;;5049843;28;20266;-66
2023/08/03 12:31:54;;;;;;;9.98;9.65;;;25.90;99.90;;;;;;5051548;28;20212;-66
2023/08/03 12:34:22;;;;;;;9.68;9.38;;;25.70;99.90;;;;;;5050282;28;20219;-67